Time,TemperatureF,DewpointF,PressureIn,WindDirection,WindDirectionDegrees,WindSpeedMPH,WindSpeedGustMPH,Humidity,HourlyPrecipIn,Conditions,Clouds,dailyrainin,SoftwareType,DateUTC
2013-09-12 00:06:00,79.3,68.3,30.08,SSW,202,0.0,-999.0,69,0.00,,,0.00,open2300 v1.10,2013-09-12 05:06:00,
2013-09-12 00:11:00,79.2,68.1,30.08,SSW,202,0.0,-999.0,69,0.00,,,0.00,open2300 v1.10,2013-09-12 05:11:00,
2013-09-12 00:16:00,79.0,68.4,30.08,SSW,202,0.0,-999.0,70,0.00,,,0.00,open2300 v1.10,2013-09-12 05:16:00,
2013-09-12 00:21:00,78.6,68.0,30.08,SSW,202,0.0,-999.0,70,0.00,,,0.00,open2300 v1.10,2013-09-12 05:21:00,
2013-09-12 00:27:00,78.6,68.4,30.08,SSW,202,0.0,-999.0,71,0.00,,,0.00,open2300 v1.10,2013-09-12 05:27:00,
2013-09-12 00:32:00,78.3,68.1,30.08,SSW,202,0.0,-999.0,71,0.00,,,0.00,open2300 v1.10,2013-09-12 05:32:00,
2013-09-12 00:37:00,78.1,67.9,30.07,SSW,202,0.0,-999.0,71,0.00,,,0.00,open2300 v1.10,2013-09-12 05:37:00,
2013-09-12 00:42:00,77.9,68.1,30.07,SSW,202,0.0,-999.0,72,0.00,,,0.00,open2300 v1.10,2013-09-12 05:42:00,
2013-09-12 00:47:00,77.7,68.0,30.07,SSW,202,0.0,-999.0,72,0.00,,,0.00,open2300 v1.10,2013-09-12 05:47:00,
2013-09-12 00:52:00,77.5,68.2,30.06,SSW,202,0.0,-999.0,73,0.00,,,0.00,open2300 v1.10,2013-09-12 05:52:00,
2013-09-12 00:57:00,77.5,68.2,30.07,SSW,202,0.0,-999.0,73,0.00,,,0.00,open2300 v1.10,2013-09-12 05:57:00,
2013-09-12 01:06:00,77.2,68.2,30.07,SSW,202,0.0,-999.0,74,0.00,,,0.00,open2300 v1.10,2013-09-12 06:06:00,
2013-09-12 01:11:00,77.0,68.1,30.07,SSW,202,0.0,-999.0,74,0.00,,,0.00,open2300 v1.10,2013-09-12 06:11:00,
2013-09-12 01:16:00,76.8,67.9,30.07,SSW,202,0.0,-999.0,74,0.00,,,0.00,open2300 v1.10,2013-09-12 06:16:00,
2013-09-12 01:21:00,76.8,68.3,30.07,SSW,202,0.0,-999.0,75,0.00,,,0.00,open2300 v1.10,2013-09-12 06:21:00,
2013-09-12 01:27:00,76.8,68.3,30.06,SSW,202,0.0,-999.0,75,0.00,,,0.00,open2300 v1.10,2013-09-12 06:27:00,
2013-09-12 01:32:00,76.6,68.1,30.07,SSW,202,0.0,-999.0,75,0.00,,,0.00,open2300 v1.10,2013-09-12 06:32:00,
2013-09-12 01:37:00,76.6,68.1,30.06,SSW,202,0.0,-999.0,75,0.00,,,0.00,open2300 v1.10,2013-09-12 06:37:00,
2013-09-12 01:47:00,76.3,68.1,30.06,SW,225,0.0,-999.0,76,0.00,,,0.00,open2300 v1.10,2013-09-12 06:47:00,
2013-09-12 01:52:00,76.5,67.9,30.06,SW,225,0.0,-999.0,75,0.00,,,0.00,open2300 v1.10,2013-09-12 06:52:00,
2013-09-12 01:57:00,76.6,68.1,30.07,SW,225,0.0,-999.0,75,0.00,,,0.00,open2300 v1.10,2013-09-12 06:57:00,
2013-09-12 02:06:00,76.8,68.3,30.07,SW,225,0.0,-999.0,75,0.00,,,0.00,open2300 v1.10,2013-09-12 07:06:00,
2013-09-12 02:16:00,77.2,68.6,30.07,SW,225,0.0,-999.0,75,0.00,,,0.00,open2300 v1.10,2013-09-12 07:16:00,
2013-09-12 02:27:00,76.8,67.9,30.06,WSW,247,0.0,-999.0,74,0.00,,,0.00,open2300 v1.10,2013-09-12 07:27:00,
2013-09-12 02:32:00,77.5,68.6,30.06,WSW,247,0.0,-999.0,74,0.00,,,0.00,open2300 v1.10,2013-09-12 07:32:00,
2013-09-12 02:37:00,77.9,68.5,30.06,WSW,247,0.0,-999.0,73,0.00,,,0.00,open2300 v1.10,2013-09-12 07:37:00,
2013-09-12 02:47:00,77.9,68.9,30.06,WSW,247,0.0,-999.0,74,0.00,,,0.00,open2300 v1.10,2013-09-12 07:47:00,
2013-09-12 02:52:00,77.5,68.6,30.06,WSW,247,0.0,-999.0,74,0.00,,,0.00,open2300 v1.10,2013-09-12 07:52:00,
2013-09-12 02:57:00,77.0,68.4,30.06,WSW,247,0.0,-999.0,75,0.00,,,0.00,open2300 v1.10,2013-09-12 07:57:00,
2013-09-12 03:06:00,76.3,68.1,30.06,WSW,247,0.0,-999.0,76,0.00,,,0.00,open2300 v1.10,2013-09-12 08:06:00,
2013-09-12 03:11:00,76.3,68.1,30.06,WSW,247,0.0,-999.0,76,0.00,,,0.00,open2300 v1.10,2013-09-12 08:11:00,
2013-09-12 03:16:00,75.9,68.0,30.06,WSW,247,0.0,-999.0,76,0.00,,,0.00,open2300 v1.10,2013-09-12 08:16:00,
2013-09-12 03:21:00,75.9,67.8,30.06,WSW,247,0.0,-999.0,76,0.00,,,0.00,open2300 v1.10,2013-09-12 08:21:00,
2013-09-12 03:27:00,75.9,68.2,30.06,WSW,247,0.0,-999.0,77,0.00,,,0.00,open2300 v1.10,2013-09-12 08:27:00,
2013-09-12 03:32:00,75.9,68.2,30.06,WSW,247,0.0,-999.0,77,0.00,,,0.00,open2300 v1.10,2013-09-12 08:32:00,
2013-09-12 03:37:00,75.7,68.0,30.06,WSW,247,0.0,-999.0,77,0.00,,,0.00,open2300 v1.10,2013-09-12 08:37:00,
2013-09-12 03:47:00,75.4,68.1,30.06,WSW,247,0.0,-999.0,78,0.00,,,0.00,open2300 v1.10,2013-09-12 08:47:00,
2013-09-12 03:52:00,75.0,68.1,30.06,WSW,247,0.0,-999.0,79,0.00,,,0.00,open2300 v1.10,2013-09-12 08:52:00,
2013-09-12 03:57:00,75.0,68.1,30.06,WSW,247,0.0,-999.0,79,0.00,,,0.00,open2300 v1.10,2013-09-12 08:57:00,
2013-09-12 04:06:00,74.7,68.2,30.06,WSW,247,0.0,-999.0,80,0.00,,,0.00,open2300 v1.10,2013-09-12 09:06:00,
2013-09-12 04:11:00,74.5,68.0,30.06,WSW,247,0.0,-999.0,80,0.00,,,0.00,open2300 v1.10,2013-09-12 09:11:00,
2013-09-12 04:16:00,74.1,67.8,30.06,WSW,247,0.0,-999.0,80,0.00,,,0.00,open2300 v1.10,2013-09-12 09:16:00,
2013-09-12 04:21:00,73.9,67.5,30.06,WSW,247,0.0,-999.0,80,0.00,,,0.00,open2300 v1.10,2013-09-12 09:21:00,
2013-09-12 04:26:00,73.9,67.8,30.06,WSW,247,0.0,-999.0,81,0.00,,,0.00,open2300 v1.10,2013-09-12 09:26:00,
2013-09-12 04:32:00,73.6,67.4,30.07,WSW,247,0.0,-999.0,81,0.00,,,0.00,open2300 v1.10,2013-09-12 09:32:00,
2013-09-12 04:37:00,73.4,67.3,30.07,WSW,247,0.0,-999.0,81,0.00,,,0.00,open2300 v1.10,2013-09-12 09:37:00,
2013-09-12 04:42:00,73.2,67.1,30.07,WSW,247,0.0,-999.0,81,0.00,,,0.00,open2300 v1.10,2013-09-12 09:42:00,
2013-09-12 04:47:00,73.0,66.9,30.06,WSW,247,0.0,-999.0,81,0.00,,,0.00,open2300 v1.10,2013-09-12 09:47:00,
2013-09-12 04:52:00,73.0,67.2,30.06,WSW,247,0.0,-999.0,82,0.00,,,0.00,open2300 v1.10,2013-09-12 09:52:00,
2013-09-12 04:57:00,72.9,67.1,30.06,WSW,247,0.0,-999.0,82,0.00,,,0.00,open2300 v1.10,2013-09-12 09:57:00,
2013-09-12 05:06:00,72.7,66.9,30.06,SW,225,0.0,-999.0,82,0.00,,,0.00,open2300 v1.10,2013-09-12 10:06:00,
2013-09-12 05:11:00,72.5,66.7,30.07,SW,225,0.0,-999.0,82,0.00,,,0.00,open2300 v1.10,2013-09-12 10:11:00,
2013-09-12 05:16:00,72.3,66.5,30.06,SW,225,0.0,-999.0,82,0.00,,,0.00,open2300 v1.10,2013-09-12 10:16:00,
2013-09-12 05:21:00,72.1,66.3,30.06,SW,225,0.0,-999.0,82,0.00,,,0.00,open2300 v1.10,2013-09-12 10:21:00,
2013-09-12 05:27:00,72.1,66.3,30.07,SW,225,0.0,-999.0,82,0.00,,,0.00,open2300 v1.10,2013-09-12 10:27:00,
2013-09-12 05:32:00,72.0,66.5,30.07,SW,225,0.0,-999.0,83,0.00,,,0.00,open2300 v1.10,2013-09-12 10:32:00,
2013-09-12 05:37:00,72.0,66.5,30.07,SW,225,0.0,-999.0,83,0.00,,,0.00,open2300 v1.10,2013-09-12 10:37:00,
2013-09-12 05:42:00,71.8,66.3,30.07,SW,225,0.0,-999.0,83,0.00,,,0.00,open2300 v1.10,2013-09-12 10:42:00,
2013-09-12 05:52:00,71.8,66.3,30.07,SW,225,0.0,-999.0,83,0.00,,,0.00,open2300 v1.10,2013-09-12 10:52:00,
2013-09-12 06:01:00,71.6,66.2,30.07,SW,225,0.0,-999.0,83,0.00,,,0.00,open2300 v1.10,2013-09-12 11:01:00,
2013-09-12 06:06:00,71.4,66.0,30.07,SW,225,0.0,-999.0,83,0.00,,,0.00,open2300 v1.10,2013-09-12 11:06:00,
2013-09-12 06:11:00,71.4,66.0,30.07,SW,225,0.0,-999.0,83,0.00,,,0.00,open2300 v1.10,2013-09-12 11:11:00,
2013-09-12 06:16:00,71.2,65.8,30.07,SW,225,0.0,-999.0,83,0.00,,,0.00,open2300 v1.10,2013-09-12 11:16:00,
2013-09-12 06:21:00,71.2,65.8,30.07,SW,225,0.0,-999.0,83,0.00,,,0.00,open2300 v1.10,2013-09-12 11:21:00,
2013-09-12 06:26:00,71.2,65.8,30.07,SW,225,0.0,-999.0,83,0.00,,,0.00,open2300 v1.10,2013-09-12 11:26:00,
2013-09-12 06:32:00,71.2,65.8,30.07,SW,225,0.0,-999.0,83,0.00,,,0.00,open2300 v1.10,2013-09-12 11:32:00,
2013-09-12 06:37:00,71.1,65.9,30.07,SW,225,0.0,-999.0,84,0.00,,,0.00,open2300 v1.10,2013-09-12 11:37:00,
2013-09-12 06:42:00,70.9,65.8,30.07,SW,225,0.0,-999.0,84,0.00,,,0.00,open2300 v1.10,2013-09-12 11:42:00,
2013-09-12 06:47:00,70.9,66.1,30.08,SW,225,0.0,-999.0,85,0.00,,,0.00,open2300 v1.10,2013-09-12 11:47:00,
2013-09-12 06:52:00,70.9,66.1,30.08,SW,225,0.0,-999.0,85,0.00,,,0.00,open2300 v1.10,2013-09-12 11:52:00,
2013-09-12 06:57:00,70.9,66.1,30.08,SW,225,0.0,-999.0,85,0.00,,,0.00,open2300 v1.10,2013-09-12 11:57:00,
2013-09-12 07:06:00,71.2,66.8,30.08,SW,225,0.0,-999.0,86,0.00,,,0.00,open2300 v1.10,2013-09-12 12:06:00,
2013-09-12 07:11:00,71.2,66.8,30.09,SW,225,0.0,-999.0,86,0.00,,,0.00,open2300 v1.10,2013-09-12 12:11:00,
2013-09-12 07:16:00,71.4,66.7,30.09,SW,225,0.0,-999.0,85,0.00,,,0.00,open2300 v1.10,2013-09-12 12:16:00,
2013-09-12 07:21:00,71.8,67.0,30.08,SW,225,0.0,-999.0,85,0.00,,,0.00,open2300 v1.10,2013-09-12 12:21:00,
2013-09-12 07:26:00,72.0,67.2,30.09,SW,225,0.0,-999.0,85,0.00,,,0.00,open2300 v1.10,2013-09-12 12:26:00,
2013-09-12 07:32:00,72.3,67.2,30.09,SW,225,0.0,-999.0,84,0.00,,,0.00,open2300 v1.10,2013-09-12 12:32:00,
2013-09-12 07:37:00,72.7,67.6,30.09,SW,225,0.0,-999.0,84,0.00,,,0.00,open2300 v1.10,2013-09-12 12:37:00,
2013-09-12 07:42:00,73.0,67.9,30.09,SW,225,0.0,-999.0,84,0.00,,,0.00,open2300 v1.10,2013-09-12 12:42:00,
2013-09-12 07:47:00,73.6,68.1,30.09,SW,225,0.0,-999.0,83,0.00,,,0.00,open2300 v1.10,2013-09-12 12:47:00,
2013-09-12 07:52:00,73.9,68.5,30.09,SW,225,0.0,-999.0,83,0.00,,,0.00,open2300 v1.10,2013-09-12 12:52:00,
2013-09-12 07:57:00,74.3,68.8,30.09,SW,225,0.0,-999.0,83,0.00,,,0.00,open2300 v1.10,2013-09-12 12:57:00,
2013-09-12 08:06:00,75.6,69.7,30.09,SW,225,0.0,-999.0,82,0.00,,,0.00,open2300 v1.10,2013-09-12 13:06:00,
2013-09-12 08:11:00,75.7,69.9,30.09,SW,225,0.0,-999.0,82,0.00,,,0.00,open2300 v1.10,2013-09-12 13:11:00,
2013-09-12 08:16:00,76.3,69.7,30.09,SW,225,0.0,-999.0,80,0.00,,,0.00,open2300 v1.10,2013-09-12 13:16:00,
2013-09-12 08:21:00,76.6,70.0,30.09,SW,225,0.0,-999.0,80,0.00,,,0.00,open2300 v1.10,2013-09-12 13:21:00,
2013-09-12 08:27:00,77.2,70.1,30.09,SW,225,0.0,-999.0,79,0.00,,,0.00,open2300 v1.10,2013-09-12 13:27:00,
2013-09-12 08:32:00,77.9,70.5,30.09,SW,225,0.0,-999.0,78,0.00,,,0.00,open2300 v1.10,2013-09-12 13:32:00,
2013-09-12 08:37:00,78.4,70.2,30.09,SSW,202,0.0,-999.0,76,0.00,,,0.00,open2300 v1.10,2013-09-12 13:37:00,
2013-09-12 08:47:00,79.5,70.1,30.09,South,180,0.0,-999.0,73,0.00,,,0.00,open2300 v1.10,2013-09-12 13:47:00,
2013-09-12 08:52:00,80.2,70.0,30.09,South,180,0.0,-999.0,71,0.00,,,0.00,open2300 v1.10,2013-09-12 13:52:00,
2013-09-12 08:57:00,80.4,69.8,30.09,South,180,0.0,-999.0,70,0.00,,,0.00,open2300 v1.10,2013-09-12 13:57:00,
2013-09-12 09:06:00,81.3,69.7,30.08,SSW,202,0.0,-999.0,68,0.00,,,0.00,open2300 v1.10,2013-09-12 14:06:00,
2013-09-12 09:11:00,81.7,69.6,30.08,WNW,292,0.0,-999.0,67,0.00,,,0.00,open2300 v1.10,2013-09-12 14:11:00,
2013-09-12 09:16:00,82.2,70.5,30.09,ESE,112,0.0,-999.0,68,0.00,,,0.00,open2300 v1.10,2013-09-12 14:16:00,
2013-09-12 09:21:00,82.6,70.4,30.08,North,0,0.0,-999.0,67,0.00,,,0.00,open2300 v1.10,2013-09-12 14:21:00,
2013-09-12 09:27:00,82.9,70.8,30.08,ENE,67,0.0,-999.0,67,0.00,,,0.00,open2300 v1.10,2013-09-12 14:27:00,
2013-09-12 09:32:00,82.8,70.2,30.08,SSE,157,0.0,-999.0,66,0.00,,,0.00,open2300 v1.10,2013-09-12 14:32:00,
2013-09-12 09:37:00,82.9,70.3,30.08,ESE,112,0.0,-999.0,66,0.00,,,0.00,open2300 v1.10,2013-09-12 14:37:00,
2013-09-12 09:42:00,83.1,70.5,30.08,ESE,112,0.0,-999.0,66,0.00,,,0.00,open2300 v1.10,2013-09-12 14:42:00,
2013-09-12 09:47:00,83.5,70.0,30.09,SE,135,3.6,-999.0,64,0.00,,,0.00,open2300 v1.10,2013-09-12 14:47:00,
2013-09-12 09:52:00,83.5,70.0,30.09,SE,135,0.0,-999.0,64,0.00,,,0.00,open2300 v1.10,2013-09-12 14:52:00,
2013-09-12 09:57:00,83.5,70.0,30.09,SE,135,0.0,-999.0,64,0.00,,,0.00,open2300 v1.10,2013-09-12 14:57:00,
2013-09-12 10:06:00,84.0,69.6,30.09,SE,135,0.0,-999.0,62,0.00,,,0.00,open2300 v1.10,2013-09-12 15:06:00,
2013-09-12 10:11:00,84.0,69.6,30.09,ENE,67,0.0,-999.0,62,0.00,,,0.00,open2300 v1.10,2013-09-12 15:11:00,
2013-09-12 10:16:00,84.2,69.3,30.09,ESE,112,0.0,-999.0,61,0.00,,,0.00,open2300 v1.10,2013-09-12 15:16:00,
2013-09-12 10:21:00,84.2,69.3,30.09,ENE,67,0.0,-999.0,61,0.00,,,0.00,open2300 v1.10,2013-09-12 15:21:00,
2013-09-12 10:26:00,84.4,69.1,30.09,SSE,157,2.7,-999.0,60,0.00,,,0.00,open2300 v1.10,2013-09-12 15:26:00,
2013-09-12 10:32:00,84.9,69.0,30.09,South,180,0.0,-999.0,59,0.00,,,0.00,open2300 v1.10,2013-09-12 15:32:00,
2013-09-12 10:42:00,85.6,68.6,30.08,SSE,157,0.0,-999.0,57,0.00,,,0.00,open2300 v1.10,2013-09-12 15:42:00,
2013-09-12 10:47:00,86.0,69.5,30.08,SE,135,4.0,-999.0,58,0.00,,,0.00,open2300 v1.10,2013-09-12 15:47:00,
2013-09-12 10:52:00,85.8,68.8,30.08,East,90,0.0,-999.0,57,0.00,,,0.00,open2300 v1.10,2013-09-12 15:52:00,
2013-09-12 10:57:00,85.8,68.8,30.08,East,90,0.0,-999.0,57,0.00,,,0.00,open2300 v1.10,2013-09-12 15:57:00,
2013-09-12 11:06:00,86.2,68.1,30.08,SSE,157,4.0,-999.0,55,0.00,,,0.00,open2300 v1.10,2013-09-12 16:06:00,
2013-09-12 11:11:00,86.4,67.7,30.08,SE,135,3.1,-999.0,54,0.00,,,0.00,open2300 v1.10,2013-09-12 16:11:00,
2013-09-12 11:16:00,86.4,67.7,30.08,SE,135,0.0,-999.0,54,0.00,,,0.00,open2300 v1.10,2013-09-12 16:16:00,
2013-09-12 11:21:00,86.4,68.2,30.08,SE,135,0.0,-999.0,55,0.00,,,0.00,open2300 v1.10,2013-09-12 16:21:00,
2013-09-12 11:26:00,86.7,67.0,30.08,South,180,0.0,-999.0,52,0.00,,,0.00,open2300 v1.10,2013-09-12 16:26:00,
2013-09-12 11:32:00,86.9,67.2,30.08,SE,135,0.0,-999.0,52,0.00,,,0.00,open2300 v1.10,2013-09-12 16:32:00,
2013-09-12 11:37:00,87.1,67.3,30.07,SSE,157,0.9,-999.0,52,0.00,,,0.00,open2300 v1.10,2013-09-12 16:37:00,
2013-09-12 11:47:00,87.4,66.6,30.07,ESE,112,4.0,-999.0,50,0.00,,,0.00,open2300 v1.10,2013-09-12 16:47:00,
2013-09-12 11:52:00,87.1,66.8,30.07,SSE,157,4.7,-999.0,51,0.00,,,0.00,open2300 v1.10,2013-09-12 16:52:00,
2013-09-12 11:57:00,87.4,66.6,30.07,SSE,157,2.0,-999.0,50,0.00,,,0.00,open2300 v1.10,2013-09-12 16:57:00,
2013-09-12 12:06:00,87.4,67.1,30.06,ESE,112,1.8,-999.0,51,0.00,,,0.00,open2300 v1.10,2013-09-12 17:06:00,
2013-09-12 12:16:00,87.6,66.8,30.06,South,180,0.0,-999.0,50,0.00,,,0.00,open2300 v1.10,2013-09-12 17:16:00,
2013-09-12 12:21:00,87.8,66.9,30.06,ESE,112,8.7,-999.0,50,0.00,,,0.00,open2300 v1.10,2013-09-12 17:21:00,
2013-09-12 12:27:00,88.0,67.1,30.06,SE,135,8.9,-999.0,50,0.00,,,0.00,open2300 v1.10,2013-09-12 17:27:00,
2013-09-12 12:32:00,88.0,66.4,30.06,SE,135,6.7,-999.0,49,0.00,,,0.00,open2300 v1.10,2013-09-12 17:32:00,
2013-09-12 12:37:00,88.0,67.1,30.05,ESE,112,0.0,-999.0,50,0.00,,,0.00,open2300 v1.10,2013-09-12 17:37:00,
2013-09-12 12:42:00,88.3,67.4,30.05,SSE,157,2.7,-999.0,50,0.00,,,0.00,open2300 v1.10,2013-09-12 17:42:00,
2013-09-12 12:47:00,89.2,66.9,30.05,South,180,0.0,-999.0,48,0.00,,,0.00,open2300 v1.10,2013-09-12 17:47:00,
2013-09-12 12:52:00,89.4,67.1,30.05,ESE,112,5.4,-999.0,48,0.00,,,0.00,open2300 v1.10,2013-09-12 17:52:00,
2013-09-12 12:57:00,89.8,66.1,30.05,SE,135,10.7,-999.0,46,0.00,,,0.00,open2300 v1.10,2013-09-12 17:57:00,
2013-09-12 13:06:00,89.4,66.4,30.04,ESE,112,10.3,-999.0,47,0.00,,,0.00,open2300 v1.10,2013-09-12 18:06:00,
2013-09-12 13:11:00,89.4,66.4,30.04,SE,135,4.9,-999.0,47,0.00,,,0.00,open2300 v1.10,2013-09-12 18:11:00,
2013-09-12 13:16:00,89.8,65.5,30.04,SSE,157,0.0,-999.0,45,0.00,,,0.00,open2300 v1.10,2013-09-12 18:16:00,
2013-09-12 13:21:00,90.0,65.6,30.04,SE,135,4.2,-999.0,45,0.00,,,0.00,open2300 v1.10,2013-09-12 18:21:00,
2013-09-12 13:27:00,90.1,65.1,30.04,SE,135,6.7,-999.0,44,0.00,,,0.00,open2300 v1.10,2013-09-12 18:27:00,
2013-09-12 13:32:00,90.1,65.1,30.03,ESE,112,6.7,-999.0,44,0.00,,,0.00,open2300 v1.10,2013-09-12 18:32:00,
2013-09-12 13:37:00,90.0,65.0,30.02,ESE,112,1.1,-999.0,44,0.00,,,0.00,open2300 v1.10,2013-09-12 18:37:00,
2013-09-12 13:42:00,89.8,65.5,30.02,SW,225,11.2,-999.0,45,0.00,,,0.00,open2300 v1.10,2013-09-12 18:42:00,
2013-09-12 13:47:00,90.1,65.1,30.02,SW,225,5.6,-999.0,44,0.00,,,0.00,open2300 v1.10,2013-09-12 18:47:00,
2013-09-12 13:52:00,90.1,65.1,30.02,SSW,202,0.0,-999.0,44,0.00,,,0.00,open2300 v1.10,2013-09-12 18:52:00,
2013-09-12 13:57:00,90.5,64.8,30.02,SSW,202,2.7,-999.0,43,0.00,,,0.00,open2300 v1.10,2013-09-12 18:57:00,
2013-09-12 14:06:00,90.7,64.3,30.01,SE,135,6.9,-999.0,42,0.00,,,0.00,open2300 v1.10,2013-09-12 19:06:00,
2013-09-12 14:11:00,90.7,63.0,30.01,ESE,112,2.2,-999.0,40,0.00,,,0.00,open2300 v1.10,2013-09-12 19:11:00,
2013-09-12 14:16:00,91.0,62.6,30.01,SE,135,0.0,-999.0,39,0.00,,,0.00,open2300 v1.10,2013-09-12 19:16:00,
2013-09-12 14:21:00,91.0,63.4,30.01,SSW,202,8.1,-999.0,40,0.00,,,0.00,open2300 v1.10,2013-09-12 19:21:00,
2013-09-12 14:27:00,91.2,63.5,30.00,SE,135,5.8,-999.0,40,0.00,,,0.00,open2300 v1.10,2013-09-12 19:27:00,
2013-09-12 14:32:00,91.0,63.4,30.00,SE,135,0.0,-999.0,40,0.00,,,0.00,open2300 v1.10,2013-09-12 19:32:00,
2013-09-12 14:37:00,91.0,64.0,30.00,SE,135,7.4,-999.0,41,0.00,,,0.00,open2300 v1.10,2013-09-12 19:37:00,
2013-09-12 14:42:00,91.0,64.0,30.00,SE,135,6.0,-999.0,41,0.00,,,0.00,open2300 v1.10,2013-09-12 19:42:00,
2013-09-12 14:47:00,91.0,64.0,29.99,SE,135,7.8,-999.0,41,0.00,,,0.00,open2300 v1.10,2013-09-12 19:47:00,
2013-09-12 14:52:00,91.0,64.0,29.99,ESE,112,6.9,-999.0,41,0.00,,,0.00,open2300 v1.10,2013-09-12 19:52:00,
2013-09-12 14:57:00,91.0,64.0,29.99,SE,135,5.8,-999.0,41,0.00,,,0.00,open2300 v1.10,2013-09-12 19:57:00,
2013-09-12 15:06:00,91.2,65.5,29.98,SSW,202,0.0,-999.0,43,0.00,,,0.00,open2300 v1.10,2013-09-12 20:06:00,
2013-09-12 15:11:00,91.2,64.2,29.98,SE,135,4.7,-999.0,41,0.00,,,0.00,open2300 v1.10,2013-09-12 20:11:00,
2013-09-12 15:16:00,91.6,64.5,29.98,South,180,0.0,-999.0,41,0.00,,,0.00,open2300 v1.10,2013-09-12 20:16:00,
2013-09-12 15:21:00,91.8,64.0,29.98,ESE,112,9.2,-999.0,40,0.00,,,0.00,open2300 v1.10,2013-09-12 20:21:00,
2013-09-12 15:26:00,91.6,63.0,29.97,SE,135,0.0,-999.0,39,0.00,,,0.00,open2300 v1.10,2013-09-12 20:26:00,
2013-09-12 15:32:00,91.2,63.5,29.97,SE,135,0.0,-999.0,40,0.00,,,0.00,open2300 v1.10,2013-09-12 20:32:00,
2013-09-12 15:37:00,91.6,63.0,29.97,SSE,157,5.8,-999.0,39,0.00,,,0.00,open2300 v1.10,2013-09-12 20:37:00,
2013-09-12 15:42:00,91.6,63.8,29.97,East,90,0.0,-999.0,40,0.00,,,0.00,open2300 v1.10,2013-09-12 20:42:00,
2013-09-12 15:47:00,91.6,64.5,29.97,ESE,112,6.3,-999.0,41,0.00,,,0.00,open2300 v1.10,2013-09-12 20:47:00,
2013-09-12 15:52:00,91.8,64.7,29.96,SE,135,7.4,-999.0,41,0.00,,,0.00,open2300 v1.10,2013-09-12 20:52:00,
2013-09-12 15:57:00,91.8,64.0,29.96,SE,135,0.0,-999.0,40,0.00,,,0.00,open2300 v1.10,2013-09-12 20:57:00,
2013-09-12 16:06:00,91.4,64.3,29.96,SSE,157,0.0,-999.0,41,0.00,,,0.00,open2300 v1.10,2013-09-12 21:06:00,
2013-09-12 16:16:00,91.4,64.3,29.96,SE,135,6.0,-999.0,41,0.00,,,0.00,open2300 v1.10,2013-09-12 21:16:00,
2013-09-12 16:26:00,91.2,63.5,29.95,SSE,157,2.0,-999.0,40,0.00,,,0.00,open2300 v1.10,2013-09-12 21:26:00,
2013-09-12 16:32:00,91.6,63.8,29.95,South,180,0.9,-999.0,40,0.00,,,0.00,open2300 v1.10,2013-09-12 21:32:00,
2013-09-12 16:37:00,91.6,64.5,29.95,ESE,112,0.0,-999.0,41,0.00,,,0.00,open2300 v1.10,2013-09-12 21:37:00,
2013-09-12 16:47:00,91.6,65.1,29.94,SW,225,0.2,-999.0,42,0.00,,,0.00,open2300 v1.10,2013-09-12 21:47:00,
2013-09-12 16:57:00,91.8,64.7,29.95,South,180,0.0,-999.0,41,0.00,,,0.00,open2300 v1.10,2013-09-12 21:57:00,
2013-09-12 17:06:00,91.9,64.8,29.95,SE,135,3.4,-999.0,41,0.00,,,0.00,open2300 v1.10,2013-09-12 22:06:00,
2013-09-12 17:11:00,91.9,64.8,29.95,SSE,157,6.5,-999.0,41,0.00,,,0.00,open2300 v1.10,2013-09-12 22:11:00,
2013-09-12 17:16:00,91.8,64.7,29.95,SE,135,6.5,-999.0,41,0.00,,,0.00,open2300 v1.10,2013-09-12 22:16:00,
2013-09-12 17:21:00,91.4,64.3,29.94,SE,135,0.0,-999.0,41,0.00,,,0.00,open2300 v1.10,2013-09-12 22:21:00,
2013-09-12 17:27:00,91.2,64.2,29.94,SE,135,0.0,-999.0,41,0.00,,,0.00,open2300 v1.10,2013-09-12 22:27:00,
2013-09-12 17:32:00,91.2,64.8,29.94,SE,135,0.0,-999.0,42,0.00,,,0.00,open2300 v1.10,2013-09-12 22:32:00,
2013-09-12 17:37:00,91.0,64.7,29.94,ESE,112,2.2,-999.0,42,0.00,,,0.00,open2300 v1.10,2013-09-12 22:37:00,
2013-09-12 17:42:00,91.0,64.7,29.94,SE,135,6.3,-999.0,42,0.00,,,0.00,open2300 v1.10,2013-09-12 22:42:00,
2013-09-12 17:47:00,90.7,64.3,29.93,SE,135,4.5,-999.0,42,0.00,,,0.00,open2300 v1.10,2013-09-12 22:47:00,
2013-09-12 17:52:00,90.7,64.3,29.93,SSE,157,5.6,-999.0,42,0.00,,,0.00,open2300 v1.10,2013-09-12 22:52:00,
2013-09-12 17:57:00,90.5,64.3,29.93,SSE,157,5.8,-999.0,42,0.00,,,0.00,open2300 v1.10,2013-09-12 22:57:00,
2013-09-12 18:06:00,90.7,64.3,29.94,SSE,157,0.0,-999.0,42,0.00,,,0.00,open2300 v1.10,2013-09-12 23:06:00,
2013-09-12 18:11:00,90.7,64.3,29.94,SE,135,2.7,-999.0,42,0.00,,,0.00,open2300 v1.10,2013-09-12 23:11:00,
2013-09-12 18:16:00,90.5,64.2,29.94,SSE,157,0.0,-999.0,42,0.00,,,0.00,open2300 v1.10,2013-09-12 23:16:00,
2013-09-12 18:21:00,90.5,64.2,29.95,SE,135,0.4,-999.0,42,0.00,,,0.00,open2300 v1.10,2013-09-12 23:21:00,
2013-09-12 18:26:00,90.3,63.4,29.94,SE,135,1.8,-999.0,41,0.00,,,0.00,open2300 v1.10,2013-09-12 23:26:00,
2013-09-12 18:32:00,90.3,64.0,29.95,SE,135,0.4,-999.0,42,0.00,,,0.00,open2300 v1.10,2013-09-12 23:32:00,
2013-09-12 18:37:00,90.1,63.8,29.95,SE,135,1.6,-999.0,42,0.00,,,0.00,open2300 v1.10,2013-09-12 23:37:00,
2013-09-12 18:42:00,90.1,63.8,29.95,SE,135,0.0,-999.0,42,0.00,,,0.00,open2300 v1.10,2013-09-12 23:42:00,
2013-09-12 18:47:00,90.0,63.7,29.95,SSE,157,0.0,-999.0,42,0.00,,,0.00,open2300 v1.10,2013-09-12 23:47:00,
2013-09-12 18:52:00,89.8,63.5,29.95,SE,135,0.0,-999.0,42,0.00,,,0.00,open2300 v1.10,2013-09-12 23:52:00,
2013-09-12 18:57:00,89.8,64.2,29.95,SSE,157,0.0,-999.0,43,0.00,,,0.00,open2300 v1.10,2013-09-12 23:57:00,
2013-09-12 19:06:00,89.4,63.8,29.95,SSE,157,0.0,-999.0,43,0.00,,,0.00,open2300 v1.10,2013-09-13 00:06:00,
2013-09-12 19:11:00,89.2,64.3,29.96,SSE,157,0.0,-999.0,44,0.00,,,0.00,open2300 v1.10,2013-09-13 00:11:00,
2013-09-12 19:21:00,88.9,64.7,29.95,SSE,157,0.0,-999.0,45,0.00,,,0.00,open2300 v1.10,2013-09-13 00:21:00,
2013-09-12 19:27:00,88.7,64.5,29.95,SW,225,0.0,-999.0,45,0.00,,,0.00,open2300 v1.10,2013-09-13 00:27:00,
2013-09-12 19:32:00,88.3,64.8,29.95,SSW,202,0.0,-999.0,46,0.00,,,0.00,open2300 v1.10,2013-09-13 00:32:00,
2013-09-12 19:37:00,88.2,64.7,29.95,SSW,202,0.0,-999.0,46,0.00,,,0.00,open2300 v1.10,2013-09-13 00:37:00,
2013-09-12 19:42:00,88.0,65.2,29.95,SSW,202,0.0,-999.0,47,0.00,,,0.00,open2300 v1.10,2013-09-13 00:42:00,
2013-09-12 19:47:00,87.4,64.7,29.95,SSW,202,0.0,-999.0,47,0.00,,,0.00,open2300 v1.10,2013-09-13 00:47:00,
2013-09-12 19:52:00,87.1,65.0,29.95,SSW,202,0.0,-999.0,48,0.00,,,0.00,open2300 v1.10,2013-09-13 00:52:00,
2013-09-12 20:01:00,86.5,64.5,29.95,SSW,202,0.0,-999.0,48,0.00,,,0.00,open2300 v1.10,2013-09-13 01:01:00,
2013-09-12 20:06:00,86.2,64.8,29.95,SSW,202,0.0,-999.0,49,0.00,,,0.00,open2300 v1.10,2013-09-13 01:06:00,
2013-09-12 20:11:00,85.8,64.5,29.95,SSW,202,0.0,-999.0,49,0.00,,,0.00,open2300 v1.10,2013-09-13 01:11:00,
2013-09-12 20:16:00,85.6,64.3,29.95,SSW,202,0.0,-999.0,49,0.00,,,0.00,open2300 v1.10,2013-09-13 01:16:00,
2013-09-12 20:21:00,85.6,65.0,29.95,SSW,202,0.0,-999.0,50,0.00,,,0.00,open2300 v1.10,2013-09-13 01:21:00,
2013-09-12 20:26:00,85.3,64.7,29.96,SSW,202,0.0,-999.0,50,0.00,,,0.00,open2300 v1.10,2013-09-13 01:26:00,
2013-09-12 20:32:00,85.1,64.5,29.96,SSW,202,0.0,-999.0,50,0.00,,,0.00,open2300 v1.10,2013-09-13 01:32:00,
2013-09-12 20:37:00,84.9,64.3,29.96,SSW,202,0.0,-999.0,50,0.00,,,0.00,open2300 v1.10,2013-09-13 01:37:00,
2013-09-12 20:42:00,84.7,64.7,29.96,SSW,202,0.0,-999.0,51,0.00,,,0.00,open2300 v1.10,2013-09-13 01:42:00,
2013-09-12 20:47:00,84.7,64.7,29.96,SSW,202,0.0,-999.0,51,0.00,,,0.00,open2300 v1.10,2013-09-13 01:47:00,
2013-09-12 20:52:00,84.4,64.4,29.96,SSW,202,0.0,-999.0,51,0.00,,,0.00,open2300 v1.10,2013-09-13 01:52:00,
2013-09-12 20:57:00,84.4,64.9,29.96,SSW,202,0.0,-999.0,52,0.00,,,0.00,open2300 v1.10,2013-09-13 01:57:00,
2013-09-12 21:06:00,84.0,64.5,29.97,SSW,202,0.0,-999.0,52,0.00,,,0.00,open2300 v1.10,2013-09-13 02:06:00,
2013-09-12 21:11:00,84.0,64.5,29.96,SSW,202,0.0,-999.0,52,0.00,,,0.00,open2300 v1.10,2013-09-13 02:11:00,
2013-09-12 21:16:00,84.0,65.1,29.96,SSW,202,0.0,-999.0,53,0.00,,,0.00,open2300 v1.10,2013-09-13 02:16:00,
2013-09-12 21:21:00,84.0,65.1,29.97,SSW,202,0.0,-999.0,53,0.00,,,0.00,open2300 v1.10,2013-09-13 02:21:00,
2013-09-12 21:27:00,84.0,65.1,29.96,SSW,202,0.0,-999.0,53,0.00,,,0.00,open2300 v1.10,2013-09-13 02:27:00,
2013-09-12 21:32:00,83.8,64.9,29.97,SSW,202,0.0,-999.0,53,0.00,,,0.00,open2300 v1.10,2013-09-13 02:32:00,
2013-09-12 21:37:00,83.7,65.2,29.97,SSW,202,0.0,-999.0,54,0.00,,,0.00,open2300 v1.10,2013-09-13 02:37:00,
2013-09-12 21:42:00,83.5,65.1,29.97,SSW,202,0.0,-999.0,54,0.00,,,0.00,open2300 v1.10,2013-09-13 02:42:00,
2013-09-12 21:47:00,83.5,65.1,29.97,SSW,202,0.0,-999.0,54,0.00,,,0.00,open2300 v1.10,2013-09-13 02:47:00,
2013-09-12 21:52:00,83.5,65.1,29.97,SSW,202,0.0,-999.0,54,0.00,,,0.00,open2300 v1.10,2013-09-13 02:52:00,
2013-09-12 21:57:00,83.1,65.2,29.97,SSW,202,0.0,-999.0,55,0.00,,,0.00,open2300 v1.10,2013-09-13 02:57:00,
2013-09-12 22:06:00,82.9,65.0,29.97,SSW,202,0.0,-999.0,55,0.00,,,0.00,open2300 v1.10,2013-09-13 03:06:00,
2013-09-12 22:16:00,82.2,64.8,29.97,SSW,202,0.0,-999.0,56,0.00,,,0.00,open2300 v1.10,2013-09-13 03:16:00,
2013-09-12 22:21:00,82.0,65.2,29.97,SSW,202,0.0,-999.0,57,0.00,,,0.00,open2300 v1.10,2013-09-13 03:21:00,
2013-09-12 22:27:00,81.7,64.9,29.97,SSW,202,0.0,-999.0,57,0.00,,,0.00,open2300 v1.10,2013-09-13 03:27:00,
2013-09-12 22:32:00,81.3,64.6,29.98,SSW,202,0.0,-999.0,57,0.00,,,0.00,open2300 v1.10,2013-09-13 03:32:00,
2013-09-12 22:37:00,81.1,64.9,29.97,SSW,202,0.0,-999.0,58,0.00,,,0.00,open2300 v1.10,2013-09-13 03:37:00,
2013-09-12 22:47:00,80.8,64.6,29.97,SSW,202,0.0,-999.0,58,0.00,,,0.00,open2300 v1.10,2013-09-13 03:47:00,
2013-09-12 22:57:00,80.2,65.2,29.96,SSW,202,0.0,-999.0,60,0.00,,,0.00,open2300 v1.10,2013-09-13 03:57:00,
2013-09-12 23:01:00,79.9,64.8,29.96,SSW,202,0.0,-999.0,60,0.00,,,0.00,open2300 v1.10,2013-09-13 04:01:00,
2013-09-12 23:06:00,79.9,64.8,29.97,SSW,202,0.0,-999.0,60,0.00,,,0.00,open2300 v1.10,2013-09-13 04:06:00,
2013-09-12 23:11:00,80.1,65.0,29.97,SSW,202,0.0,-999.0,60,0.00,,,0.00,open2300 v1.10,2013-09-13 04:11:00,
2013-09-12 23:16:00,80.2,65.2,29.97,SSW,202,0.0,-999.0,60,0.00,,,0.00,open2300 v1.10,2013-09-13 04:16:00,
2013-09-12 23:21:00,80.1,65.4,29.97,SSW,202,0.0,-999.0,61,0.00,,,0.00,open2300 v1.10,2013-09-13 04:21:00,
2013-09-12 23:26:00,79.9,65.3,29.97,SSW,202,0.0,-999.0,61,0.00,,,0.00,open2300 v1.10,2013-09-13 04:26:00,
2013-09-12 23:32:00,79.9,65.3,29.97,SSW,202,0.0,-999.0,61,0.00,,,0.00,open2300 v1.10,2013-09-13 04:32:00,
2013-09-12 23:37:00,80.1,65.4,29.97,SSW,202,0.0,-999.0,61,0.00,,,0.00,open2300 v1.10,2013-09-13 04:37:00,
2013-09-12 23:42:00,80.2,65.6,29.97,SSW,202,0.0,-999.0,61,0.00,,,0.00,open2300 v1.10,2013-09-13 04:42:00,
2013-09-12 23:47:00,79.9,65.3,29.97,SSW,202,0.0,-999.0,61,0.00,,,0.00,open2300 v1.10,2013-09-13 04:47:00,
2013-09-12 23:52:00,79.9,65.3,29.97,SSW,202,0.0,-999.0,61,0.00,,,0.00,open2300 v1.10,2013-09-13 04:52:00,
2013-09-12 23:57:00,79.7,65.6,29.97,SSW,202,0.0,-999.0,62,0.00,,,0.00,open2300 v1.10,2013-09-13 04:57:00,